sensor_id;sensor_type;location;lat;lon;timestamp;P1;durP1;ratioP1;P2;durP2;ratioP2
57313;SDS011;53202;50.976;18.216;2024-03-02T00:00:41;108.50;;;61.40;;
57313;SDS011;53202;50.976;18.216;2024-03-02T00:01:42;119.90;;;61.50;;
57313;SDS011;53202;50.976;18.216;2024-03-02T00:02:43;122.60;;;63.10;;
57313;SDS011;53202;50.976;18.216;2024-03-02T00:03:44;113.70;;;62.80;;
57313;SDS011;53202;50.976;18.216;2024-03-02T00:04:45;120.00;;;62.20;;
57313;SDS011;53202;50.976;18.216;2024-03-02T00:05:48;111.90;;;62.50;;
57313;SDS011;53202;50.976;18.216;2024-03-02T00:06:51;108.50;;;64.10;;
57313;SDS011;53202;50.976;18.216;2024-03-02T00:07:55;115.30;;;63.60;;
57313;SDS011;53202;50.976;18.216;2024-03-02T00:08:58;115.20;;;62.60;;
57313;SDS011;53202;50.976;18.216;2024-03-02T00:09:59;106.50;;;64.10;;
57313;SDS011;53202;50.976;18.216;2024-03-02T00:11:01;127.50;;;62.50;;
57313;SDS011;53202;50.976;18.216;2024-03-02T00:12:04;111.70;;;62.20;;
57313;SDS011;53202;50.976;18.216;2024-03-02T00:13:06;115.90;;;62.30;;
57313;SDS011;53202;50.976;18.216;2024-03-02T00:14:08;118.20;;;63.60;;
57313;SDS011;53202;50.976;18.216;2024-03-02T00:16:48;111.70;;;61.30;;
57313;SDS011;53202;50.976;18.216;2024-03-02T00:17:53;115.70;;;63.60;;
57313;SDS011;53202;50.976;18.216;2024-03-02T00:18:54;110.40;;;62.20;;
57313;SDS011;53202;50.976;18.216;2024-03-02T00:19:55;102.10;;;58.40;;
57313;SDS011;53202;50.976;18.216;2024-03-02T00:20:56;115.60;;;60.30;;
57313;SDS011;53202;50.976;18.216;2024-03-02T00:22:00;110.90;;;61.00;;
57313;SDS011;53202;50.976;18.216;2024-03-02T00:23:03;115.50;;;62.80;;
57313;SDS011;53202;50.976;18.216;2024-03-02T00:24:08;124.10;;;63.50;;
57313;SDS011;53202;50.976;18.216;2024-03-02T00:25:21;104.50;;;61.30;;
57313;SDS011;53202;50.976;18.216;2024-03-02T00:26:22;112.00;;;63.40;;
57313;SDS011;53202;50.976;18.216;2024-03-02T00:27:23;117.40;;;61.20;;
57313;SDS011;53202;50.976;18.216;2024-03-02T00:28:26;109.60;;;61.60;;
57313;SDS011;53202;50.976;18.216;2024-03-02T00:29:34;112.60;;;62.10;;
57313;SDS011;53202;50.976;18.216;2024-03-02T00:30:41;108.40;;;60.10;;
57313;SDS011;53202;50.976;18.216;2024-03-02T00:31:52;104.50;;;59.20;;
57313;SDS011;53202;50.976;18.216;2024-03-02T00:32:53;116.00;;;63.20;;
57313;SDS011;53202;50.976;18.216;2024-03-02T00:33:55;106.10;;;61.10;;
57313;SDS011;53202;50.976;18.216;2024-03-02T00:34:56;112.80;;;62.30;;
57313;SDS011;53202;50.976;18.216;2024-03-02T00:35:57;107.50;;;60.90;;
57313;SDS011;53202;50.976;18.216;2024-03-02T00:36:58;103.90;;;59.30;;
57313;SDS011;53202;50.976;18.216;2024-03-02T00:38:04;118.20;;;60.40;;
57313;SDS011;53202;50.976;18.216;2024-03-02T00:39:06;113.20;;;61.90;;
57313;SDS011;53202;50.976;18.216;2024-03-02T00:40:08;111.20;;;60.20;;
57313;SDS011;53202;50.976;18.216;2024-03-02T00:41:15;111.00;;;63.40;;
57313;SDS011;53202;50.976;18.216;2024-03-02T00:42:20;105.60;;;61.60;;
57313;SDS011;53202;50.976;18.216;2024-03-02T00:43:34;122.60;;;62.70;;
57313;SDS011;53202;50.976;18.216;2024-03-02T00:44:57;116.50;;;61.70;;
57313;SDS011;53202;50.976;18.216;2024-03-02T00:45:58;102.40;;;58.80;;
57313;SDS011;53202;50.976;18.216;2024-03-02T00:46:59;111.40;;;60.20;;
57313;SDS011;53202;50.976;18.216;2024-03-02T00:48:01;101.30;;;60.80;;
57313;SDS011;53202;50.976;18.216;2024-03-02T00:49:03;123.80;;;62.80;;
57313;SDS011;53202;50.976;18.216;2024-03-02T00:50:05;110.20;;;63.60;;
57313;SDS011;53202;50.976;18.216;2024-03-02T00:51:09;97.90;;;59.60;;
57313;SDS011;53202;50.976;18.216;2024-03-02T00:52:10;100.50;;;57.50;;
57313;SDS011;53202;50.976;18.216;2024-03-02T00:53:11;102.60;;;59.40;;
57313;SDS011;53202;50.976;18.216;2024-03-02T00:54:13;108.60;;;58.60;;
57313;SDS011;53202;50.976;18.216;2024-03-02T00:55:14;97.90;;;57.90;;
57313;SDS011;53202;50.976;18.216;2024-03-02T00:56:15;114.40;;;60.00;;
57313;SDS011;53202;50.976;18.216;2024-03-02T00:57:16;106.90;;;61.60;;
57313;SDS011;53202;50.976;18.216;2024-03-02T00:58:17;105.20;;;60.10;;
57313;SDS011;53202;50.976;18.216;2024-03-02T00:59:18;108.40;;;58.90;;
57313;SDS011;53202;50.976;18.216;2024-03-02T01:00:19;104.50;;;58.80;;
57313;SDS011;53202;50.976;18.216;2024-03-02T01:01:21;112.40;;;57.70;;
57313;SDS011;53202;50.976;18.216;2024-03-02T01:02:22;115.20;;;60.60;;
57313;SDS011;53202;50.976;18.216;2024-03-02T01:03:23;106.90;;;58.70;;
57313;SDS011;53202;50.976;18.216;2024-03-02T01:04:24;110.10;;;60.10;;
57313;SDS011;53202;50.976;18.216;2024-03-02T01:05:25;113.00;;;58.60;;
57313;SDS011;53202;50.976;18.216;2024-03-02T01:06:26;104.00;;;58.10;;
57313;SDS011;53202;50.976;18.216;2024-03-02T01:07:28;102.20;;;59.80;;
57313;SDS011;53202;50.976;18.216;2024-03-02T01:08:29;93.10;;;55.60;;
57313;SDS011;53202;50.976;18.216;2024-03-02T01:09:30;104.60;;;60.10;;
57313;SDS011;53202;50.976;18.216;2024-03-02T01:10:31;105.30;;;58.80;;
57313;SDS011;53202;50.976;18.216;2024-03-02T01:11:32;111.30;;;59.50;;
57313;SDS011;53202;50.976;18.216;2024-03-02T01:12:33;110.30;;;58.40;;
57313;SDS011;53202;50.976;18.216;2024-03-02T01:13:34;111.10;;;59.10;;
57313;SDS011;53202;50.976;18.216;2024-03-02T01:14:35;110.80;;;58.00;;
57313;SDS011;53202;50.976;18.216;2024-03-02T01:15:36;109.60;;;59.20;;
57313;SDS011;53202;50.976;18.216;2024-03-02T01:16:37;106.50;;;59.50;;
57313;SDS011;53202;50.976;18.216;2024-03-02T01:17:38;107.90;;;58.40;;
57313;SDS011;53202;50.976;18.216;2024-03-02T01:18:39;107.00;;;58.70;;
57313;SDS011;53202;50.976;18.216;2024-03-02T01:19:41;106.90;;;57.60;;
57313;SDS011;53202;50.976;18.216;2024-03-02T01:20:42;108.60;;;59.00;;
57313;SDS011;53202;50.976;18.216;2024-03-02T01:21:43;101.90;;;57.50;;
57313;SDS011;53202;50.976;18.216;2024-03-02T01:22:44;95.00;;;58.20;;
57313;SDS011;53202;50.976;18.216;2024-03-02T01:23:45;98.40;;;58.60;;
57313;SDS011;53202;50.976;18.216;2024-03-02T01:24:46;114.90;;;62.40;;
57313;SDS011;53202;50.976;18.216;2024-03-02T01:25:47;98.90;;;57.30;;
57313;SDS011;53202;50.976;18.216;2024-03-02T01:26:48;105.10;;;57.90;;
57313;SDS011;53202;50.976;18.216;2024-03-02T01:27:49;102.80;;;56.90;;
57313;SDS011;53202;50.976;18.216;2024-03-02T01:28:50;107.00;;;57.50;;
57313;SDS011;53202;50.976;18.216;2024-03-02T01:29:51;113.00;;;57.80;;
57313;SDS011;53202;50.976;18.216;2024-03-02T01:30:52;112.50;;;59.00;;
57313;SDS011;53202;50.976;18.216;2024-03-02T01:31:53;96.80;;;57.60;;
57313;SDS011;53202;50.976;18.216;2024-03-02T01:32:54;105.10;;;59.70;;
57313;SDS011;53202;50.976;18.216;2024-03-02T01:33:55;95.50;;;59.40;;
57313;SDS011;53202;50.976;18.216;2024-03-02T01:34:56;95.20;;;55.80;;
57313;SDS011;53202;50.976;18.216;2024-03-02T01:35:57;93.50;;;55.30;;
57313;SDS011;53202;50.976;18.216;2024-03-02T01:36:58;95.20;;;55.00;;
57313;SDS011;53202;50.976;18.216;2024-03-02T01:37:59;101.00;;;58.10;;
57313;SDS011;53202;50.976;18.216;2024-03-02T01:39:00;98.80;;;56.20;;
57313;SDS011;53202;50.976;18.216;2024-03-02T01:40:01;116.10;;;59.50;;
57313;SDS011;53202;50.976;18.216;2024-03-02T01:41:03;96.10;;;56.50;;
57313;SDS011;53202;50.976;18.216;2024-03-02T01:42:04;100.80;;;58.00;;
57313;SDS011;53202;50.976;18.216;2024-03-02T01:43:05;97.40;;;56.70;;
57313;SDS011;53202;50.976;18.216;2024-03-02T01:44:07;99.60;;;56.00;;
57313;SDS011;53202;50.976;18.216;2024-03-02T01:45:09;95.40;;;55.90;;
57313;SDS011;53202;50.976;18.216;2024-03-02T01:46:10;104.00;;;54.70;;
57313;SDS011;53202;50.976;18.216;2024-03-02T01:47:11;96.80;;;54.70;;
57313;SDS011;53202;50.976;18.216;2024-03-02T01:48:12;95.90;;;56.40;;
57313;SDS011;53202;50.976;18.216;2024-03-02T01:49:13;104.50;;;58.00;;
57313;SDS011;53202;50.976;18.216;2024-03-02T01:50:14;87.70;;;55.30;;
57313;SDS011;53202;50.976;18.216;2024-03-02T01:51:15;96.60;;;54.20;;
57313;SDS011;53202;50.976;18.216;2024-03-02T01:52:16;94.80;;;56.20;;
57313;SDS011;53202;50.976;18.216;2024-03-02T01:53:17;102.90;;;55.90;;
57313;SDS011;53202;50.976;18.216;2024-03-02T01:54:19;110.20;;;59.80;;
57313;SDS011;53202;50.976;18.216;2024-03-02T01:55:20;90.60;;;55.70;;
57313;SDS011;53202;50.976;18.216;2024-03-02T01:56:21;104.10;;;55.40;;
57313;SDS011;53202;50.976;18.216;2024-03-02T01:57:22;91.50;;;56.10;;
57313;SDS011;53202;50.976;18.216;2024-03-02T01:58:23;89.50;;;54.80;;
57313;SDS011;53202;50.976;18.216;2024-03-02T01:59:24;99.40;;;56.10;;
57313;SDS011;53202;50.976;18.216;2024-03-02T02:00:25;99.50;;;55.90;;
57313;SDS011;53202;50.976;18.216;2024-03-02T02:01:27;99.00;;;58.20;;
57313;SDS011;53202;50.976;18.216;2024-03-02T02:02:27;91.50;;;52.80;;
57313;SDS011;53202;50.976;18.216;2024-03-02T02:03:29;95.50;;;53.90;;
57313;SDS011;53202;50.976;18.216;2024-03-02T02:04:30;97.60;;;55.50;;
57313;SDS011;53202;50.976;18.216;2024-03-02T02:05:31;93.10;;;56.30;;
57313;SDS011;53202;50.976;18.216;2024-03-02T02:06:32;96.50;;;55.00;;
57313;SDS011;53202;50.976;18.216;2024-03-02T02:07:33;96.50;;;55.00;;
57313;SDS011;53202;50.976;18.216;2024-03-02T02:08:36;85.20;;;52.80;;
57313;SDS011;53202;50.976;18.216;2024-03-02T02:09:38;96.00;;;52.40;;
57313;SDS011;53202;50.976;18.216;2024-03-02T02:10:39;91.70;;;52.40;;
57313;SDS011;53202;50.976;18.216;2024-03-02T02:11:40;98.80;;;55.80;;
57313;SDS011;53202;50.976;18.216;2024-03-02T02:12:41;105.00;;;55.20;;
57313;SDS011;53202;50.976;18.216;2024-03-02T02:13:42;95.90;;;51.50;;
57313;SDS011;53202;50.976;18.216;2024-03-02T02:14:50;80.30;;;52.10;;
57313;SDS011;53202;50.976;18.216;2024-03-02T02:15:51;97.20;;;53.40;;
57313;SDS011;53202;50.976;18.216;2024-03-02T02:16:53;88.80;;;49.30;;
57313;SDS011;53202;50.976;18.216;2024-03-02T02:17:54;85.40;;;51.70;;
57313;SDS011;53202;50.976;18.216;2024-03-02T02:18:56;100.30;;;54.40;;
57313;SDS011;53202;50.976;18.216;2024-03-02T02:19:57;108.10;;;51.90;;
57313;SDS011;53202;50.976;18.216;2024-03-02T02:20:58;89.40;;;52.00;;
57313;SDS011;53202;50.976;18.216;2024-03-02T02:21:59;90.80;;;52.00;;
57313;SDS011;53202;50.976;18.216;2024-03-02T02:23:01;89.30;;;53.00;;
57313;SDS011;53202;50.976;18.216;2024-03-02T02:24:03;88.60;;;51.30;;
57313;SDS011;53202;50.976;18.216;2024-03-02T02:25:04;89.50;;;50.00;;
57313;SDS011;53202;50.976;18.216;2024-03-02T02:26:05;92.00;;;51.70;;
57313;SDS011;53202;50.976;18.216;2024-03-02T02:27:07;83.40;;;49.70;;
57313;SDS011;53202;50.976;18.216;2024-03-02T02:28:08;78.30;;;49.10;;
57313;SDS011;53202;50.976;18.216;2024-03-02T02:29:10;85.70;;;51.10;;
57313;SDS011;53202;50.976;18.216;2024-03-02T02:30:11;74.00;;;48.50;;
57313;SDS011;53202;50.976;18.216;2024-03-02T02:31:13;85.10;;;49.40;;
57313;SDS011;53202;50.976;18.216;2024-03-02T02:32:14;85.30;;;52.70;;
57313;SDS011;53202;50.976;18.216;2024-03-02T02:33:16;85.30;;;51.10;;
57313;SDS011;53202;50.976;18.216;2024-03-02T02:34:16;78.70;;;48.20;;
57313;SDS011;53202;50.976;18.216;2024-03-02T02:35:17;87.60;;;50.60;;
57313;SDS011;53202;50.976;18.216;2024-03-02T02:36:19;88.30;;;48.50;;
57313;SDS011;53202;50.976;18.216;2024-03-02T02:37:20;102.60;;;51.50;;
57313;SDS011;53202;50.976;18.216;2024-03-02T02:38:21;93.60;;;50.60;;
57313;SDS011;53202;50.976;18.216;2024-03-02T02:39:22;85.10;;;53.00;;
57313;SDS011;53202;50.976;18.216;2024-03-02T02:40:23;88.20;;;49.60;;
57313;SDS011;53202;50.976;18.216;2024-03-02T02:41:24;91.60;;;51.40;;
57313;SDS011;53202;50.976;18.216;2024-03-02T02:42:24;86.00;;;52.40;;
57313;SDS011;53202;50.976;18.216;2024-03-02T02:43:26;105.20;;;54.10;;
57313;SDS011;53202;50.976;18.216;2024-03-02T02:44:26;83.30;;;50.90;;
57313;SDS011;53202;50.976;18.216;2024-03-02T02:45:27;90.60;;;51.90;;
57313;SDS011;53202;50.976;18.216;2024-03-02T02:46:28;86.80;;;48.00;;
57313;SDS011;53202;50.976;18.216;2024-03-02T02:47:29;85.60;;;50.30;;
57313;SDS011;53202;50.976;18.216;2024-03-02T02:48:30;90.50;;;49.60;;
57313;SDS011;53202;50.976;18.216;2024-03-02T02:49:31;84.30;;;50.40;;
57313;SDS011;53202;50.976;18.216;2024-03-02T02:50:32;86.30;;;51.00;;
57313;SDS011;53202;50.976;18.216;2024-03-02T02:51:33;90.00;;;51.30;;
57313;SDS011;53202;50.976;18.216;2024-03-02T02:52:34;90.50;;;49.40;;
57313;SDS011;53202;50.976;18.216;2024-03-02T02:53:36;88.60;;;48.80;;
57313;SDS011;53202;50.976;18.216;2024-03-02T02:54:40;86.20;;;48.10;;
57313;SDS011;53202;50.976;18.216;2024-03-02T02:55:42;85.80;;;47.90;;
57313;SDS011;53202;50.976;18.216;2024-03-02T02:56:43;84.20;;;48.80;;
57313;SDS011;53202;50.976;18.216;2024-03-02T02:57:44;92.30;;;49.40;;
57313;SDS011;53202;50.976;18.216;2024-03-02T02:58:47;82.50;;;48.50;;
57313;SDS011;53202;50.976;18.216;2024-03-02T02:59:48;90.50;;;49.30;;
57313;SDS011;53202;50.976;18.216;2024-03-02T03:00:49;81.40;;;48.50;;
57313;SDS011;53202;50.976;18.216;2024-03-02T03:01:51;82.80;;;48.30;;
57313;SDS011;53202;50.976;18.216;2024-03-02T03:02:52;85.70;;;48.00;;
57313;SDS011;53202;50.976;18.216;2024-03-02T03:03:53;78.50;;;47.10;;
57313;SDS011;53202;50.976;18.216;2024-03-02T03:04:54;93.40;;;51.50;;
57313;SDS011;53202;50.976;18.216;2024-03-02T03:05:57;82.30;;;51.50;;
57313;SDS011;53202;50.976;18.216;2024-03-02T03:06:58;82.10;;;47.60;;
57313;SDS011;53202;50.976;18.216;2024-03-02T03:07:59;76.90;;;47.70;;
57313;SDS011;53202;50.976;18.216;2024-03-02T03:09:00;81.40;;;45.40;;
57313;SDS011;53202;50.976;18.216;2024-03-02T03:10:02;78.40;;;46.40;;
57313;SDS011;53202;50.976;18.216;2024-03-02T03:11:04;78.80;;;46.60;;
57313;SDS011;53202;50.976;18.216;2024-03-02T03:12:05;80.60;;;48.60;;
57313;SDS011;53202;50.976;18.216;2024-03-02T03:13:06;86.60;;;45.70;;
57313;SDS011;53202;50.976;18.216;2024-03-02T03:14:08;77.30;;;47.40;;
57313;SDS011;53202;50.976;18.216;2024-03-02T03:15:09;75.10;;;45.20;;
57313;SDS011;53202;50.976;18.216;2024-03-02T03:16:11;91.10;;;49.90;;
57313;SDS011;53202;50.976;18.216;2024-03-02T03:17:12;79.70;;;46.30;;
57313;SDS011;53202;50.976;18.216;2024-03-02T03:18:13;85.20;;;47.90;;
57313;SDS011;53202;50.976;18.216;2024-03-02T03:19:14;77.60;;;43.00;;
57313;SDS011;53202;50.976;18.216;2024-03-02T03:20:15;81.10;;;47.10;;
57313;SDS011;53202;50.976;18.216;2024-03-02T03:21:16;83.10;;;47.70;;
57313;SDS011;53202;50.976;18.216;2024-03-02T03:22:17;80.50;;;49.20;;
57313;SDS011;53202;50.976;18.216;2024-03-02T03:23:18;75.80;;;46.30;;
57313;SDS011;53202;50.976;18.216;2024-03-02T03:24:19;76.00;;;47.90;;
57313;SDS011;53202;50.976;18.216;2024-03-02T03:25:20;82.20;;;47.20;;
57313;SDS011;53202;50.976;18.216;2024-03-02T03:26:21;79.10;;;48.30;;
57313;SDS011;53202;50.976;18.216;2024-03-02T03:27:22;84.60;;;47.60;;
57313;SDS011;53202;50.976;18.216;2024-03-02T03:28:23;77.30;;;47.70;;
57313;SDS011;53202;50.976;18.216;2024-03-02T03:29:24;79.60;;;46.70;;
57313;SDS011;53202;50.976;18.216;2024-03-02T03:30:26;81.70;;;47.80;;
57313;SDS011;53202;50.976;18.216;2024-03-02T03:31:27;82.30;;;47.90;;
57313;SDS011;53202;50.976;18.216;2024-03-02T03:32:28;88.10;;;50.80;;
57313;SDS011;53202;50.976;18.216;2024-03-02T03:33:29;77.50;;;47.40;;
57313;SDS011;53202;50.976;18.216;2024-03-02T03:34:34;84.40;;;47.20;;
57313;SDS011;53202;50.976;18.216;2024-03-02T03:35:35;77.60;;;46.90;;
57313;SDS011;53202;50.976;18.216;2024-03-02T03:36:37;84.00;;;49.00;;
57313;SDS011;53202;50.976;18.216;2024-03-02T03:37:38;84.60;;;46.30;;
57313;SDS011;53202;50.976;18.216;2024-03-02T03:38:39;85.60;;;49.40;;
57313;SDS011;53202;50.976;18.216;2024-03-02T03:39:40;79.90;;;45.10;;
57313;SDS011;53202;50.976;18.216;2024-03-02T03:40:41;84.70;;;48.00;;
57313;SDS011;53202;50.976;18.216;2024-03-02T03:41:42;83.70;;;48.30;;
57313;SDS011;53202;50.976;18.216;2024-03-02T03:42:43;77.30;;;47.80;;
57313;SDS011;53202;50.976;18.216;2024-03-02T03:43:44;86.70;;;49.20;;
57313;SDS011;53202;50.976;18.216;2024-03-02T03:44:45;85.10;;;48.20;;
57313;SDS011;53202;50.976;18.216;2024-03-02T03:45:46;90.70;;;51.30;;
57313;SDS011;53202;50.976;18.216;2024-03-02T03:46:47;80.80;;;46.30;;
57313;SDS011;53202;50.976;18.216;2024-03-02T03:47:48;77.10;;;46.40;;
57313;SDS011;53202;50.976;18.216;2024-03-02T03:48:49;79.50;;;46.80;;
57313;SDS011;53202;50.976;18.216;2024-03-02T03:49:50;89.80;;;49.70;;
57313;SDS011;53202;50.976;18.216;2024-03-02T03:50:51;76.90;;;46.70;;
57313;SDS011;53202;50.976;18.216;2024-03-02T03:51:52;82.70;;;47.80;;
57313;SDS011;53202;50.976;18.216;2024-03-02T03:52:53;87.20;;;50.40;;
57313;SDS011;53202;50.976;18.216;2024-03-02T03:53:54;77.50;;;48.70;;
57313;SDS011;53202;50.976;18.216;2024-03-02T03:54:55;86.10;;;46.60;;
57313;SDS011;53202;50.976;18.216;2024-03-02T03:55:56;89.60;;;47.30;;
57313;SDS011;53202;50.976;18.216;2024-03-02T03:56:57;78.10;;;48.70;;
57313;SDS011;53202;50.976;18.216;2024-03-02T03:57:58;80.40;;;47.80;;
57313;SDS011;53202;50.976;18.216;2024-03-02T03:58:59;85.50;;;48.30;;
57313;SDS011;53202;50.976;18.216;2024-03-02T04:00:00;93.20;;;49.40;;
57313;SDS011;53202;50.976;18.216;2024-03-02T04:01:01;89.00;;;47.10;;
57313;SDS011;53202;50.976;18.216;2024-03-02T04:02:02;83.70;;;48.90;;
57313;SDS011;53202;50.976;18.216;2024-03-02T04:03:04;81.90;;;46.70;;
57313;SDS011;53202;50.976;18.216;2024-03-02T04:04:05;79.80;;;47.70;;
57313;SDS011;53202;50.976;18.216;2024-03-02T04:05:06;80.80;;;46.50;;
57313;SDS011;53202;50.976;18.216;2024-03-02T04:06:10;83.70;;;47.50;;
57313;SDS011;53202;50.976;18.216;2024-03-02T04:07:11;85.20;;;48.50;;
57313;SDS011;53202;50.976;18.216;2024-03-02T04:08:12;86.60;;;45.70;;
57313;SDS011;53202;50.976;18.216;2024-03-02T04:09:13;87.20;;;49.50;;
57313;SDS011;53202;50.976;18.216;2024-03-02T04:10:14;73.90;;;46.00;;
57313;SDS011;53202;50.976;18.216;2024-03-02T04:11:17;83.50;;;47.10;;
57313;SDS011;53202;50.976;18.216;2024-03-02T04:12:18;77.30;;;46.70;;
57313;SDS011;53202;50.976;18.216;2024-03-02T04:13:19;83.60;;;45.30;;
57313;SDS011;53202;50.976;18.216;2024-03-02T04:14:20;74.60;;;44.50;;
57313;SDS011;53202;50.976;18.216;2024-03-02T04:15:21;84.40;;;45.40;;
57313;SDS011;53202;50.976;18.216;2024-03-02T04:16:23;81.50;;;45.20;;
57313;SDS011;53202;50.976;18.216;2024-03-02T04:17:24;70.60;;;45.50;;
57313;SDS011;53202;50.976;18.216;2024-03-02T04:18:25;77.00;;;46.20;;
57313;SDS011;53202;50.976;18.216;2024-03-02T04:19:27;78.60;;;43.70;;
57313;SDS011;53202;50.976;18.216;2024-03-02T04:20:28;84.60;;;48.70;;
57313;SDS011;53202;50.976;18.216;2024-03-02T04:21:28;79.80;;;46.40;;
57313;SDS011;53202;50.976;18.216;2024-03-02T04:22:29;84.10;;;45.50;;
57313;SDS011;53202;50.976;18.216;2024-03-02T04:23:30;85.20;;;46.70;;
57313;SDS011;53202;50.976;18.216;2024-03-02T04:24:31;74.70;;;48.10;;
57313;SDS011;53202;50.976;18.216;2024-03-02T04:25:32;84.70;;;48.60;;
57313;SDS011;53202;50.976;18.216;2024-03-02T04:26:33;77.00;;;48.10;;
57313;SDS011;53202;50.976;18.216;2024-03-02T04:27:35;77.80;;;46.60;;
57313;SDS011;53202;50.976;18.216;2024-03-02T04:28:35;84.00;;;46.10;;
57313;SDS011;53202;50.976;18.216;2024-03-02T04:29:37;90.10;;;46.50;;
57313;SDS011;53202;50.976;18.216;2024-03-02T04:30:37;78.10;;;47.70;;
57313;SDS011;53202;50.976;18.216;2024-03-02T04:31:39;72.00;;;43.40;;
57313;SDS011;53202;50.976;18.216;2024-03-02T04:32:40;68.40;;;44.30;;
57313;SDS011;53202;50.976;18.216;2024-03-02T04:33:41;80.40;;;43.70;;
57313;SDS011;53202;50.976;18.216;2024-03-02T04:34:41;70.40;;;46.30;;
57313;SDS011;53202;50.976;18.216;2024-03-02T04:35:42;77.40;;;48.20;;
57313;SDS011;53202;50.976;18.216;2024-03-02T04:36:44;75.60;;;45.80;;
57313;SDS011;53202;50.976;18.216;2024-03-02T04:37:45;72.20;;;46.80;;
57313;SDS011;53202;50.976;18.216;2024-03-02T04:38:46;80.10;;;45.00;;
57313;SDS011;53202;50.976;18.216;2024-03-02T04:39:47;71.70;;;44.80;;
57313;SDS011;53202;50.976;18.216;2024-03-02T04:40:48;78.70;;;44.80;;
57313;SDS011;53202;50.976;18.216;2024-03-02T04:41:48;77.60;;;46.00;;
57313;SDS011;53202;50.976;18.216;2024-03-02T04:42:49;81.10;;;46.70;;
57313;SDS011;53202;50.976;18.216;2024-03-02T04:43:50;70.90;;;44.20;;
57313;SDS011;53202;50.976;18.216;2024-03-02T04:44:51;71.30;;;43.70;;
57313;SDS011;53202;50.976;18.216;2024-03-02T04:45:52;91.70;;;48.10;;
57313;SDS011;53202;50.976;18.216;2024-03-02T04:46:53;83.60;;;46.80;;
57313;SDS011;53202;50.976;18.216;2024-03-02T04:47:54;70.90;;;44.80;;
57313;SDS011;53202;50.976;18.216;2024-03-02T04:48:57;73.30;;;43.80;;
57313;SDS011;53202;50.976;18.216;2024-03-02T04:49:58;85.00;;;44.70;;
57313;SDS011;53202;50.976;18.216;2024-03-02T04:50:59;79.60;;;47.60;;
57313;SDS011;53202;50.976;18.216;2024-03-02T04:52:01;72.80;;;44.10;;
57313;SDS011;53202;50.976;18.216;2024-03-02T04:53:02;70.60;;;45.20;;
57313;SDS011;53202;50.976;18.216;2024-03-02T04:54:03;84.30;;;46.70;;
57313;SDS011;53202;50.976;18.216;2024-03-02T04:55:04;67.50;;;43.20;;
57313;SDS011;53202;50.976;18.216;2024-03-02T04:56:25;80.80;;;43.90;;
57313;SDS011;53202;50.976;18.216;2024-03-02T04:57:44;81.30;;;43.50;;
57313;SDS011;53202;50.976;18.216;2024-03-02T04:58:46;74.10;;;43.50;;
57313;SDS011;53202;50.976;18.216;2024-03-02T04:59:47;80.00;;;46.80;;
57313;SDS011;53202;50.976;18.216;2024-03-02T05:00:48;81.50;;;44.20;;
57313;SDS011;53202;50.976;18.216;2024-03-02T05:01:49;75.70;;;45.30;;
57313;SDS011;53202;50.976;18.216;2024-03-02T05:02:50;83.70;;;45.50;;
57313;SDS011;53202;50.976;18.216;2024-03-02T05:03:51;83.60;;;45.30;;
57313;SDS011;53202;50.976;18.216;2024-03-02T05:04:52;64.20;;;41.90;;
57313;SDS011;53202;50.976;18.216;2024-03-02T05:05:53;70.70;;;44.80;;
57313;SDS011;53202;50.976;18.216;2024-03-02T05:06:54;66.80;;;40.30;;
57313;SDS011;53202;50.976;18.216;2024-03-02T05:07:58;69.70;;;41.50;;
57313;SDS011;53202;50.976;18.216;2024-03-02T05:08:59;76.50;;;44.20;;
57313;SDS011;53202;50.976;18.216;2024-03-02T05:10:00;82.20;;;43.80;;
57313;SDS011;53202;50.976;18.216;2024-03-02T05:11:01;74.70;;;43.60;;
57313;SDS011;53202;50.976;18.216;2024-03-02T05:12:22;94.40;;;47.80;;
57313;SDS011;53202;50.976;18.216;2024-03-02T05:13:36;79.20;;;42.10;;
57313;SDS011;53202;50.976;18.216;2024-03-02T05:14:37;71.80;;;42.80;;
57313;SDS011;53202;50.976;18.216;2024-03-02T05:15:39;80.70;;;44.20;;
57313;SDS011;53202;50.976;18.216;2024-03-02T05:16:40;78.10;;;45.00;;
57313;SDS011;53202;50.976;18.216;2024-03-02T05:17:42;79.70;;;43.20;;
57313;SDS011;53202;50.976;18.216;2024-03-02T05:18:43;87.60;;;44.60;;
57313;SDS011;53202;50.976;18.216;2024-03-02T05:19:44;67.20;;;41.40;;
57313;SDS011;53202;50.976;18.216;2024-03-02T05:20:45;69.40;;;41.20;;
57313;SDS011;53202;50.976;18.216;2024-03-02T05:21:47;65.00;;;41.40;;
57313;SDS011;53202;50.976;18.216;2024-03-02T05:22:49;70.20;;;41.80;;
57313;SDS011;53202;50.976;18.216;2024-03-02T05:23:50;64.50;;;43.00;;
57313;SDS011;53202;50.976;18.216;2024-03-02T05:24:51;77.30;;;41.20;;
57313;SDS011;53202;50.976;18.216;2024-03-02T05:25:51;65.80;;;43.00;;
57313;SDS011;53202;50.976;18.216;2024-03-02T05:26:53;80.80;;;42.30;;
57313;SDS011;53202;50.976;18.216;2024-03-02T05:27:54;69.80;;;42.20;;
57313;SDS011;53202;50.976;18.216;2024-03-02T05:28:55;67.80;;;41.90;;
57313;SDS011;53202;50.976;18.216;2024-03-02T05:29:56;66.50;;;42.20;;
57313;SDS011;53202;50.976;18.216;2024-03-02T05:30:58;69.90;;;43.20;;
57313;SDS011;53202;50.976;18.216;2024-03-02T05:31:59;72.70;;;40.60;;
57313;SDS011;53202;50.976;18.216;2024-03-02T05:33:00;73.80;;;40.90;;
57313;SDS011;53202;50.976;18.216;2024-03-02T05:34:01;66.60;;;41.90;;
57313;SDS011;53202;50.976;18.216;2024-03-02T05:35:03;67.70;;;42.40;;
57313;SDS011;53202;50.976;18.216;2024-03-02T05:36:05;76.10;;;42.20;;
57313;SDS011;53202;50.976;18.216;2024-03-02T05:37:06;76.60;;;42.60;;
57313;SDS011;53202;50.976;18.216;2024-03-02T05:38:09;75.80;;;43.30;;
57313;SDS011;53202;50.976;18.216;2024-03-02T05:39:10;68.20;;;42.20;;
57313;SDS011;53202;50.976;18.216;2024-03-02T05:40:11;65.60;;;41.10;;
57313;SDS011;53202;50.976;18.216;2024-03-02T05:41:13;77.80;;;41.00;;
57313;SDS011;53202;50.976;18.216;2024-03-02T05:42:14;69.20;;;41.80;;
57313;SDS011;53202;50.976;18.216;2024-03-02T05:43:17;65.80;;;39.50;;
57313;SDS011;53202;50.976;18.216;2024-03-02T05:44:18;60.80;;;40.80;;
57313;SDS011;53202;50.976;18.216;2024-03-02T05:45:19;64.50;;;40.40;;
57313;SDS011;53202;50.976;18.216;2024-03-02T05:46:20;70.80;;;43.10;;
57313;SDS011;53202;50.976;18.216;2024-03-02T05:47:22;73.10;;;40.60;;
57313;SDS011;53202;50.976;18.216;2024-03-02T05:48:24;76.10;;;42.70;;
57313;SDS011;53202;50.976;18.216;2024-03-02T05:49:25;64.20;;;41.00;;
57313;SDS011;53202;50.976;18.216;2024-03-02T05:50:26;69.30;;;40.30;;
57313;SDS011;53202;50.976;18.216;2024-03-02T05:51:27;59.90;;;39.40;;
57313;SDS011;53202;50.976;18.216;2024-03-02T05:52:28;65.40;;;40.00;;
57313;SDS011;53202;50.976;18.216;2024-03-02T05:53:29;67.70;;;43.00;;
57313;SDS011;53202;50.976;18.216;2024-03-02T05:54:30;78.80;;;43.60;;
57313;SDS011;53202;50.976;18.216;2024-03-02T05:55:31;63.90;;;39.20;;
57313;SDS011;53202;50.976;18.216;2024-03-02T05:56:32;73.70;;;40.30;;